Have a Safe July 4th! 

Flight Track Log - Related Links

Times and Time Zones

All times are in EDT time to prevent confusion due to time zone crossing. See the N465TP flight status page for this flight to view local times or setup timezone preferences in your user account.

Time Position Orientation Groundspeed Altitude Reporting Facility
EDT Latitude Longitude Course Direction KTS MPH feet Rate Location/Type
Tue 05:03:11 PM 38.7325 -104.7083 North 152 175 8,600  Level Denver Center
Tue 05:04:18 PM 38.7539 -104.6719 53° Northeast 166 191 9,900 1,163 Climbing Denver Center
Tue 05:05:20 PM 38.8000 -104.6706 North 170 196 11,100 1,210 Climbing Denver Center
Tue 05:06:22 PM 38.8531 -104.6686 North 171 197 12,400 1,232 Climbing Denver Center
Tue 05:07:12 PM 38.8942 -104.6675 North 175 201 13,400 1,161 Climbing Denver Center
Tue 05:08:00 PM 39.1782 -104.6167 North  Level FlightAware Approximate
Tue 05:08:26 PM 38.9517 -104.6628 North 178 205 14,800  Level Denver Center
Tue 05:09:28 PM 39.0033 -104.6597 North 183 211 16,000 1,113 Climbing Denver Center
Tue 05:10:30 PM 39.0547 -104.6567 North 185 213 17,100 1,065 Climbing Denver Center
Tue 05:11:32 PM 39.1194 -104.6544 North 197 227 18,200 1,065 Climbing Denver Center
Tue 05:12:34 PM 39.1731 -104.6511 North 199 229 19,300 882 Climbing Denver Center
Tue 05:13:48 PM 39.2308 -104.6481 North 205 236 20,200 964 Climbing Denver Center
Tue 05:14:51 PM 39.3094 -104.6439 North 218 251 21,500 1,104 Climbing Denver Center
Tue 05:15:53 PM 39.3711 -104.6397 North 223 257 22,500 968 Climbing Denver Center
Tue 05:16:55 PM 39.4397 -104.6353 North 229 264 23,500 1,016 Climbing Denver Center
Tue 05:17:57 PM 39.5050 -104.6314 North 231 266 24,600 919 Climbing Denver Center
Tue 05:18:59 PM 39.5683 -104.6244 North 232 267 25,400 677 Climbing Denver Center
Tue 05:20:01 PM 39.6358 -104.6219 North 250 288 26,000 290 Climbing Denver Center
Tue 05:21:03 PM 39.7244 -104.6311 355° North 277 319 26,000  Level Denver Center
Tue 05:22:05 PM 39.8006 -104.6539 347° North 285 328 26,000  Level Denver Center
Tue 05:23:07 PM 39.8747 -104.6844 342° North 282 325 26,000  Level Denver Center
Tue 05:24:09 PM 39.9497 -104.7175 341° North 289 333 26,000  Level Denver Center
Tue 05:25:11 PM 40.0228 -104.7492 342° North 273 314 26,000  Level Denver Center
Tue 05:26:13 PM 40.0958 -104.7794 342° North 272 313 26,000  Level Denver Center
Tue 05:27:15 PM 40.1864 -104.8178 342° North 279 321 26,000  Level Denver Center
Tue 05:28:17 PM 40.2586 -104.8503 341° North 275 316 26,000  Level Denver Center
Tue 05:29:19 PM 40.3333 -104.8844 341° North 275 316 26,000  Level Denver Center
Tue 05:30:22 PM 40.4022 -104.9247 336° Northwest 273 314 26,000  Level Denver Center
Tue 05:31:24 PM 40.4728 -104.9686 335° Northwest 280 322 26,000  Level Denver Center
Tue 05:32:26 PM 40.5575 -105.0181 336° Northwest 282 325 26,000  Level Denver Center
Tue 05:33:28 PM 40.6269 -105.0589 336° Northwest 276 318 26,000  Level Denver Center
Tue 05:34:30 PM 40.6969 -105.1008 336° Northwest 279 321 26,000  Level Denver Center
Tue 05:35:32 PM 40.7647 -105.1361 338° Northwest 265 305 26,000  Level Denver Center
Tue 05:36:34 PM 40.8353 -105.1811 334° Northwest 277 319 26,000  Level Denver Center
Tue 05:37:36 PM 40.9061 -105.2214 337° Northwest 278 320 26,000  Level Denver Center
Tue 05:38:38 PM 40.9906 -105.2736 335° Northwest 280 322 26,000  Level Denver Center
Tue 05:39:40 PM 41.0597 -105.3142 336° Northwest 276 318 26,000 -48 Level Denver Center
Tue 05:40:42 PM 41.1228 -105.3608 331° Northwest 272 313 25,900  Descending Denver Center
Tue 05:41:44 PM 41.1958 -105.4128 332° Northwest 269 310 26,000 48 Climbing Denver Center
Tue 05:42:46 PM 41.2586 -105.4578 332° Northwest 267 307 26,000  Level Denver Center
Tue 05:43:48 PM 41.3331 -105.5128 331° Northwest 273 314 26,000  Level Denver Center
Tue 05:44:50 PM 41.3972 -105.5553 334° Northwest 270 311 26,000  Level Denver Center
Tue 05:45:52 PM 41.4714 -105.6039 334° Northwest 266 306 26,000  Level Denver Center
Tue 05:46:54 PM 41.5342 -105.6478 332° Northwest 264 304 26,000  Level Denver Center
Tue 05:47:56 PM 41.6100 -105.6983 334° Northwest 270 311 26,000  Level Denver Center
Tue 05:48:59 PM 41.6744 -105.7456 331° Northwest 273 314 26,000  Level Denver Center
Tue 05:50:01 PM 41.7406 -105.7867 335° Northwest 274 315 26,000  Level Denver Center
Tue 05:51:03 PM 41.8181 -105.8392 333° Northwest 277 319 26,000  Level Denver Center
Tue 05:52:05 PM 41.8864 -105.8808 336° Northwest 280 322 26,000  Level Denver Center
Tue 05:53:07 PM 41.9625 -105.9347 332° Northwest 279 321 26,000  Level Denver Center
Tue 05:54:09 PM 42.0297 -105.9692 339° North 272 313 26,000  Level Denver Center
Tue 05:55:11 PM 42.1092 -106.0142 337° Northwest 272 313 26,000  Level Denver Center
Tue 05:56:13 PM 42.1792 -106.0517 338° Northwest 279 321 26,000 -145 Level Denver Center
Tue 05:57:15 PM 42.2594 -106.0978 337° Northwest 280 322 25,700 -1,016 Descending Denver Center
Tue 05:58:17 PM 42.3303 -106.1367 338° Northwest 286 329 23,900 -1,935 Descending Denver Center
Tue 05:59:19 PM 42.4111 -106.1819 338° Northwest 279 321 21,700 -1,984 Descending Denver Center
Tue 06:00:21 PM 42.4739 -106.2189 337° Northwest 263 303 19,800 -1,935 Descending Denver Center
Tue 06:01:23 PM 42.5481 -106.2608 337° Northwest 259 298 17,700 -1,790 Descending Denver Center
Tue 06:02:25 PM 42.6100 -106.2947 338° Northwest 251 289 16,100 -1,645 Descending Denver Center
Tue 06:03:27 PM 42.6639 -106.3275 336° Northwest 225 259 14,300 -1,887 Descending Denver Center
Tue 06:04:29 PM 42.7269 -106.3547 342° North 215 247 12,200 -1,935 Descending Denver Center
Tue 06:05:31 PM 42.7839 -106.3719 347° North 216 249 10,300 -2,081 Descending Denver Center
Tue 06:06:33 PM 42.8492 -106.3800 355° North 214 246 7,900 -1,548 Descending Denver Center
Tue 06:07:35 PM 42.9103 -106.3886 354° North 212 244 7,100 -774 Descending Denver Center
Tue 06:09:00 PM 42.9000 -106.4500 340° North  Level FlightAware Approximate

Login

Don't have an account? Register now (free) for customized features, flight alerts, and more!